Anchorage/Merrill Field, Alaska
Current Conditions -  °F | °C
As of 6:53 PM on Sunday 23 Nov 2014 (Local Time) from PAMR Reporting Station
Overcast Overcast  
Wind Chill: 29°   Ceiling: 10000
Heat Index: 29°   Visibility: 10mi
Dew Point: 25°   Wind: 0mph
Humidity: 85%   Direction: NA
Pressure: 29.52"   Gusts: NA
Location:  61.21°N, 149.85°W
Report Text: PAMR 240353Z 00000KT 10SM OVC100 M02/M04 A2952 RMK AO2 SLP998 T10171039 $
Loading
Personal Weather Stations






























Interactive Weather Map New forecast layout! Learn more

10-Day Weather Forecast

Advertisements
Track Severe Weather on mobile